sensor_id;sensor_type;location;lat;lon;timestamp;P1;durP1;ratioP1;P2;durP2;ratioP2
15183;SDS011;7693;49.266;7.104;2023-04-24T05:01:13;6.53;;;5.90;;
15183;SDS011;7693;49.266;7.104;2023-04-24T05:03:38;6.67;;;6.17;;
15183;SDS011;7693;49.266;7.104;2023-04-24T05:06:04;6.40;;;5.97;;
15183;SDS011;7693;49.266;7.104;2023-04-24T05:08:30;5.70;;;5.30;;
15183;SDS011;7693;49.266;7.104;2023-04-24T05:13:32;5.93;;;5.47;;
15183;SDS011;7693;49.266;7.104;2023-04-24T05:15:57;5.27;;;4.97;;
15183;SDS011;7693;49.266;7.104;2023-04-24T05:18:24;4.63;;;4.40;;
15183;SDS011;7693;49.266;7.104;2023-04-24T05:20:49;4.87;;;4.47;;
15183;SDS011;7693;49.266;7.104;2023-04-24T05:23:15;5.27;;;4.87;;
15183;SDS011;7693;49.266;7.104;2023-04-24T05:25:40;5.07;;;4.67;;
15183;SDS011;7693;49.266;7.104;2023-04-24T05:28:06;5.00;;;4.60;;
15183;SDS011;7693;49.266;7.104;2023-04-24T05:30:32;4.70;;;4.40;;
15183;SDS011;7693;49.266;7.104;2023-04-24T05:32:57;4.70;;;4.50;;
15183;SDS011;7693;49.266;7.104;2023-04-24T05:35:23;4.03;;;3.80;;
15183;SDS011;7693;49.266;7.104;2023-04-24T05:37:48;4.23;;;3.93;;
15183;SDS011;7693;49.266;7.104;2023-04-24T05:40:14;4.20;;;4.00;;
15183;SDS011;7693;49.266;7.104;2023-04-24T05:42:39;4.13;;;3.93;;
15183;SDS011;7693;49.266;7.104;2023-04-24T05:45:05;5.30;;;4.80;;
15183;SDS011;7693;49.266;7.104;2023-04-24T05:47:31;4.57;;;4.10;;
15183;SDS011;7693;49.266;7.104;2023-04-24T05:49:57;3.67;;;3.43;;
15183;SDS011;7693;49.266;7.104;2023-04-24T05:52:22;4.20;;;3.77;;
15183;SDS011;7693;49.266;7.104;2023-04-24T05:54:48;5.50;;;4.50;;
15183;SDS011;7693;49.266;7.104;2023-04-24T05:57:14;6.00;;;4.80;;
15183;SDS011;7693;49.266;7.104;2023-04-24T05:59:40;5.13;;;4.73;;
15183;SDS011;7693;49.266;7.104;2023-04-24T06:02:05;4.20;;;4.00;;
15183;SDS011;7693;49.266;7.104;2023-04-24T06:04:32;4.30;;;3.90;;
15183;SDS011;7693;49.266;7.104;2023-04-24T06:06:57;5.20;;;4.53;;
15183;SDS011;7693;49.266;7.104;2023-04-24T06:09:23;4.33;;;4.03;;
15183;SDS011;7693;49.266;7.104;2023-04-24T06:11:50;4.63;;;4.33;;
15183;SDS011;7693;49.266;7.104;2023-04-24T06:14:18;4.73;;;4.43;;
15183;SDS011;7693;49.266;7.104;2023-04-24T06:16:44;4.20;;;3.87;;
15183;SDS011;7693;49.266;7.104;2023-04-24T06:19:09;4.77;;;3.70;;
15183;SDS011;7693;49.266;7.104;2023-04-24T06:21:35;4.47;;;4.17;;
15183;SDS011;7693;49.266;7.104;2023-04-24T06:24:01;4.47;;;4.10;;
15183;SDS011;7693;49.266;7.104;2023-04-24T06:26:27;4.40;;;4.10;;
15183;SDS011;7693;49.266;7.104;2023-04-24T06:28:52;4.33;;;4.07;;
15183;SDS011;7693;49.266;7.104;2023-04-24T06:31:21;3.90;;;3.60;;
15183;SDS011;7693;49.266;7.104;2023-04-24T06:33:48;4.10;;;3.90;;
15183;SDS011;7693;49.266;7.104;2023-04-24T06:36:14;4.50;;;4.30;;
15183;SDS011;7693;49.266;7.104;2023-04-24T06:38:40;4.47;;;4.17;;
15183;SDS011;7693;49.266;7.104;2023-04-24T06:41:06;5.10;;;4.23;;
15183;SDS011;7693;49.266;7.104;2023-04-24T06:43:32;6.30;;;3.80;;
15183;SDS011;7693;49.266;7.104;2023-04-24T06:45:58;4.07;;;3.87;;
15183;SDS011;7693;49.266;7.104;2023-04-24T06:48:24;5.30;;;3.63;;
15183;SDS011;7693;49.266;7.104;2023-04-24T06:50:50;3.60;;;3.40;;
15183;SDS011;7693;49.266;7.104;2023-04-24T06:53:16;3.53;;;3.43;;
15183;SDS011;7693;49.266;7.104;2023-04-24T06:55:42;4.07;;;3.77;;
15183;SDS011;7693;49.266;7.104;2023-04-24T06:58:09;6.93;;;3.93;;
15183;SDS011;7693;49.266;7.104;2023-04-24T07:00:35;20.73;;;11.23;;
15183;SDS011;7693;49.266;7.104;2023-04-24T07:03:01;3.40;;;3.20;;
15183;SDS011;7693;49.266;7.104;2023-04-24T07:05:27;6.07;;;3.90;;
15183;SDS011;7693;49.266;7.104;2023-04-24T07:07:53;3.60;;;3.40;;
15183;SDS011;7693;49.266;7.104;2023-04-24T07:10:18;3.30;;;3.20;;
15183;SDS011;7693;49.266;7.104;2023-04-24T07:12:45;5.20;;;3.90;;
15183;SDS011;7693;49.266;7.104;2023-04-24T07:15:11;3.27;;;3.17;;
15183;SDS011;7693;49.266;7.104;2023-04-24T07:17:37;8.57;;;6.13;;
15183;SDS011;7693;49.266;7.104;2023-04-24T07:20:03;3.77;;;3.40;;
15183;SDS011;7693;49.266;7.104;2023-04-24T07:22:30;3.43;;;3.23;;
15183;SDS011;7693;49.266;7.104;2023-04-24T07:24:56;3.50;;;3.30;;
15183;SDS011;7693;49.266;7.104;2023-04-24T07:27:25;3.57;;;3.27;;
15183;SDS011;7693;49.266;7.104;2023-04-24T07:29:50;4.43;;;3.03;;
15183;SDS011;7693;49.266;7.104;2023-04-24T07:32:16;3.30;;;3.10;;
15183;SDS011;7693;49.266;7.104;2023-04-24T07:34:41;2.90;;;2.60;;
15183;SDS011;7693;49.266;7.104;2023-04-24T07:37:07;3.60;;;3.30;;
15183;SDS011;7693;49.266;7.104;2023-04-24T07:39:32;4.10;;;3.80;;
15183;SDS011;7693;49.266;7.104;2023-04-24T07:41:59;3.00;;;2.90;;
15183;SDS011;7693;49.266;7.104;2023-04-24T07:44:24;3.73;;;3.53;;
15183;SDS011;7693;49.266;7.104;2023-04-24T07:46:50;3.47;;;3.20;;
15183;SDS011;7693;49.266;7.104;2023-04-24T07:49:16;4.37;;;4.00;;
15183;SDS011;7693;49.266;7.104;2023-04-24T07:51:42;3.60;;;3.23;;
15183;SDS011;7693;49.266;7.104;2023-04-24T07:54:07;4.27;;;4.00;;
15183;SDS011;7693;49.266;7.104;2023-04-24T07:56:36;4.17;;;3.77;;
15183;SDS011;7693;49.266;7.104;2023-04-24T07:59:06;5.13;;;4.83;;
15183;SDS011;7693;49.266;7.104;2023-04-24T08:01:32;4.27;;;3.97;;
15183;SDS011;7693;49.266;7.104;2023-04-24T08:03:58;4.87;;;4.30;;
15183;SDS011;7693;49.266;7.104;2023-04-24T08:06:23;7.80;;;4.63;;
15183;SDS011;7693;49.266;7.104;2023-04-24T08:08:49;4.40;;;4.10;;
15183;SDS011;7693;49.266;7.104;2023-04-24T08:11:16;5.20;;;4.73;;
15183;SDS011;7693;49.266;7.104;2023-04-24T08:13:41;4.73;;;4.43;;
15183;SDS011;7693;49.266;7.104;2023-04-24T08:16:07;5.10;;;4.60;;
15183;SDS011;7693;49.266;7.104;2023-04-24T08:18:33;4.90;;;4.60;;
15183;SDS011;7693;49.266;7.104;2023-04-24T08:20:59;5.83;;;5.40;;
15183;SDS011;7693;49.266;7.104;2023-04-24T08:23:26;5.97;;;5.37;;
15183;SDS011;7693;49.266;7.104;2023-04-24T08:25:52;5.13;;;4.83;;
15183;SDS011;7693;49.266;7.104;2023-04-24T08:28:17;4.97;;;4.67;;
15183;SDS011;7693;49.266;7.104;2023-04-24T08:30:45;5.40;;;5.03;;
15183;SDS011;7693;49.266;7.104;2023-04-24T08:33:12;5.67;;;5.10;;
15183;SDS011;7693;49.266;7.104;2023-04-24T08:35:41;5.63;;;5.00;;
15183;SDS011;7693;49.266;7.104;2023-04-24T08:38:06;5.77;;;5.30;;
15183;SDS011;7693;49.266;7.104;2023-04-24T08:40:33;5.90;;;5.27;;
15183;SDS011;7693;49.266;7.104;2023-04-24T08:43:00;6.20;;;5.70;;
15183;SDS011;7693;49.266;7.104;2023-04-24T08:45:25;5.60;;;5.17;;
15183;SDS011;7693;49.266;7.104;2023-04-24T08:47:54;5.57;;;5.07;;
15183;SDS011;7693;49.266;7.104;2023-04-24T08:50:20;5.57;;;5.13;;
15183;SDS011;7693;49.266;7.104;2023-04-24T08:52:47;6.10;;;5.60;;
15183;SDS011;7693;49.266;7.104;2023-04-24T08:55:15;6.30;;;5.70;;
15183;SDS011;7693;49.266;7.104;2023-04-24T08:57:43;6.20;;;5.80;;
15183;SDS011;7693;49.266;7.104;2023-04-24T09:00:10;6.00;;;5.50;;
15183;SDS011;7693;49.266;7.104;2023-04-24T09:02:36;5.47;;;5.07;;
15183;SDS011;7693;49.266;7.104;2023-04-24T09:05:05;6.57;;;6.07;;
15183;SDS011;7693;49.266;7.104;2023-04-24T09:07:32;7.37;;;5.90;;
15183;SDS011;7693;49.266;7.104;2023-04-24T09:10:02;5.80;;;5.30;;
15183;SDS011;7693;49.266;7.104;2023-04-24T09:12:28;7.33;;;6.23;;
15183;SDS011;7693;49.266;7.104;2023-04-24T09:14:53;7.03;;;6.33;;
15183;SDS011;7693;49.266;7.104;2023-04-24T09:17:20;6.60;;;6.10;;
15183;SDS011;7693;49.266;7.104;2023-04-24T09:19:47;6.50;;;6.10;;
15183;SDS011;7693;49.266;7.104;2023-04-24T09:22:15;6.67;;;6.17;;
15183;SDS011;7693;49.266;7.104;2023-04-24T09:24:40;7.33;;;5.83;;
15183;SDS011;7693;49.266;7.104;2023-04-24T09:27:06;6.27;;;5.87;;
15183;SDS011;7693;49.266;7.104;2023-04-24T09:29:32;6.67;;;6.07;;
15183;SDS011;7693;49.266;7.104;2023-04-24T09:31:58;6.20;;;5.67;;
15183;SDS011;7693;49.266;7.104;2023-04-24T09:34:27;6.37;;;5.93;;
15183;SDS011;7693;49.266;7.104;2023-04-24T09:36:52;6.70;;;6.07;;
15183;SDS011;7693;49.266;7.104;2023-04-24T09:39:18;6.70;;;6.10;;
15183;SDS011;7693;49.266;7.104;2023-04-24T09:41:48;6.93;;;6.10;;
15183;SDS011;7693;49.266;7.104;2023-04-24T09:44:22;7.70;;;6.37;;
15183;SDS011;7693;49.266;7.104;2023-04-24T09:46:53;6.13;;;5.63;;
15183;SDS011;7693;49.266;7.104;2023-04-24T09:49:22;7.27;;;6.57;;
15183;SDS011;7693;49.266;7.104;2023-04-24T09:51:49;8.60;;;6.50;;
15183;SDS011;7693;49.266;7.104;2023-04-24T09:54:16;7.50;;;6.83;;
15183;SDS011;7693;49.266;7.104;2023-04-24T09:56:47;6.37;;;5.77;;
15183;SDS011;7693;49.266;7.104;2023-04-24T09:59:14;6.63;;;6.00;;
15183;SDS011;7693;49.266;7.104;2023-04-24T10:01:42;7.77;;;6.00;;
15183;SDS011;7693;49.266;7.104;2023-04-24T10:04:22;6.00;;;5.57;;
15183;SDS011;7693;49.266;7.104;2023-04-24T10:06:50;5.80;;;5.40;;
15183;SDS011;7693;49.266;7.104;2023-04-24T12:00:05;6.83;;;6.13;;
15183;SDS011;7693;49.266;7.104;2023-04-24T12:02:33;6.53;;;5.87;;
15183;SDS011;7693;49.266;7.104;2023-04-24T12:04:58;7.00;;;6.13;;
15183;SDS011;7693;49.266;7.104;2023-04-24T12:07:24;6.57;;;6.07;;
15183;SDS011;7693;49.266;7.104;2023-04-24T12:09:54;6.50;;;5.63;;
15183;SDS011;7693;49.266;7.104;2023-04-24T12:12:23;5.67;;;5.27;;
15183;SDS011;7693;49.266;7.104;2023-04-24T12:14:55;6.07;;;5.60;;
15183;SDS011;7693;49.266;7.104;2023-04-24T12:17:28;5.97;;;5.40;;
15183;SDS011;7693;49.266;7.104;2023-04-24T12:19:59;5.73;;;5.33;;
15183;SDS011;7693;49.266;7.104;2023-04-24T12:22:26;5.63;;;5.13;;
15183;SDS011;7693;49.266;7.104;2023-04-24T12:25:10;5.50;;;5.10;;
15183;SDS011;7693;49.266;7.104;2023-04-24T12:27:35;5.20;;;4.87;;
15183;SDS011;7693;49.266;7.104;2023-04-24T12:30:02;5.20;;;4.90;;
15183;SDS011;7693;49.266;7.104;2023-04-24T12:32:29;5.43;;;4.93;;
15183;SDS011;7693;49.266;7.104;2023-04-24T12:34:55;4.77;;;4.40;;
15183;SDS011;7693;49.266;7.104;2023-04-24T12:37:25;5.50;;;5.00;;
15183;SDS011;7693;49.266;7.104;2023-04-24T12:40:05;5.40;;;4.80;;
15183;SDS011;7693;49.266;7.104;2023-04-24T12:42:31;6.70;;;5.13;;
15183;SDS011;7693;49.266;7.104;2023-04-24T12:45:06;5.87;;;5.27;;
15183;SDS011;7693;49.266;7.104;2023-04-24T12:47:33;6.63;;;5.60;;
15183;SDS011;7693;49.266;7.104;2023-04-24T12:49:59;7.07;;;5.23;;
15183;SDS011;7693;49.266;7.104;2023-04-24T12:52:26;5.47;;;5.07;;
15183;SDS011;7693;49.266;7.104;2023-04-24T12:54:54;5.30;;;4.90;;
15183;SDS011;7693;49.266;7.104;2023-04-24T12:57:21;5.53;;;5.13;;
15183;SDS011;7693;49.266;7.104;2023-04-24T12:59:47;5.63;;;5.03;;
15183;SDS011;7693;49.266;7.104;2023-04-24T13:02:13;5.50;;;5.10;;
15183;SDS011;7693;49.266;7.104;2023-04-24T13:04:42;5.80;;;5.40;;
15183;SDS011;7693;49.266;7.104;2023-04-24T13:07:14;6.13;;;5.40;;
15183;SDS011;7693;49.266;7.104;2023-04-24T13:09:40;5.70;;;5.27;;
15183;SDS011;7693;49.266;7.104;2023-04-24T13:12:07;5.37;;;4.97;;
15183;SDS011;7693;49.266;7.104;2023-04-24T13:14:33;5.30;;;4.90;;
15183;SDS011;7693;49.266;7.104;2023-04-24T13:16:59;5.17;;;4.77;;
15183;SDS011;7693;49.266;7.104;2023-04-24T13:19:25;5.43;;;5.00;;
15183;SDS011;7693;49.266;7.104;2023-04-24T13:21:52;4.43;;;4.10;;
15183;SDS011;7693;49.266;7.104;2023-04-24T13:24:17;5.03;;;4.70;;
15183;SDS011;7693;49.266;7.104;2023-04-24T13:26:43;5.57;;;5.03;;
15183;SDS011;7693;49.266;7.104;2023-04-24T13:29:09;4.93;;;4.53;;
15183;SDS011;7693;49.266;7.104;2023-04-24T13:31:35;6.03;;;5.53;;
15183;SDS011;7693;49.266;7.104;2023-04-24T13:34:01;5.27;;;4.87;;
15183;SDS011;7693;49.266;7.104;2023-04-24T13:36:28;5.40;;;4.90;;
15183;SDS011;7693;49.266;7.104;2023-04-24T13:38:53;4.60;;;4.30;;
15183;SDS011;7693;49.266;7.104;2023-04-24T13:41:19;4.60;;;4.30;;
15183;SDS011;7693;49.266;7.104;2023-04-24T13:43:45;6.67;;;4.40;;
15183;SDS011;7693;49.266;7.104;2023-04-24T13:46:10;4.13;;;3.87;;
15183;SDS011;7693;49.266;7.104;2023-04-24T13:48:36;4.00;;;3.70;;
15183;SDS011;7693;49.266;7.104;2023-04-24T13:51:02;4.70;;;4.27;;
15183;SDS011;7693;49.266;7.104;2023-04-24T13:53:27;4.33;;;4.03;;
15183;SDS011;7693;49.266;7.104;2023-04-24T13:55:53;4.70;;;4.50;;
15183;SDS011;7693;49.266;7.104;2023-04-24T13:58:18;4.60;;;4.37;;
15183;SDS011;7693;49.266;7.104;2023-04-24T14:00:44;6.33;;;5.83;;
15183;SDS011;7693;49.266;7.104;2023-04-24T14:03:10;4.60;;;4.30;;
15183;SDS011;7693;49.266;7.104;2023-04-24T14:05:35;4.77;;;4.57;;
15183;SDS011;7693;49.266;7.104;2023-04-24T14:08:01;5.23;;;4.83;;
15183;SDS011;7693;49.266;7.104;2023-04-24T14:10:27;5.97;;;5.37;;
15183;SDS011;7693;49.266;7.104;2023-04-24T14:12:53;5.93;;;5.33;;
15183;SDS011;7693;49.266;7.104;2023-04-24T14:15:18;5.17;;;4.70;;
15183;SDS011;7693;49.266;7.104;2023-04-24T14:17:44;5.77;;;5.13;;
15183;SDS011;7693;49.266;7.104;2023-04-24T14:20:10;5.50;;;5.10;;
15183;SDS011;7693;49.266;7.104;2023-04-24T14:22:37;6.83;;;5.80;;
15183;SDS011;7693;49.266;7.104;2023-04-24T14:25:02;5.53;;;5.23;;
15183;SDS011;7693;49.266;7.104;2023-04-24T14:27:29;5.67;;;5.27;;
15183;SDS011;7693;49.266;7.104;2023-04-24T14:29:55;5.13;;;4.63;;
15183;SDS011;7693;49.266;7.104;2023-04-24T14:32:21;4.73;;;4.43;;
15183;SDS011;7693;49.266;7.104;2023-04-24T14:34:46;6.00;;;5.50;;
15183;SDS011;7693;49.266;7.104;2023-04-24T14:37:12;5.27;;;4.90;;
15183;SDS011;7693;49.266;7.104;2023-04-24T14:39:37;5.10;;;4.80;;
15183;SDS011;7693;49.266;7.104;2023-04-24T14:42:03;5.17;;;4.67;;
15183;SDS011;7693;49.266;7.104;2023-04-24T14:44:28;5.87;;;4.87;;
15183;SDS011;7693;49.266;7.104;2023-04-24T14:46:54;5.17;;;4.77;;
15183;SDS011;7693;49.266;7.104;2023-04-24T14:49:20;5.20;;;4.80;;
15183;SDS011;7693;49.266;7.104;2023-04-24T14:51:45;5.30;;;5.00;;
15183;SDS011;7693;49.266;7.104;2023-04-24T14:54:11;5.63;;;5.23;;
15183;SDS011;7693;49.266;7.104;2023-04-24T14:56:37;6.27;;;5.77;;
15183;SDS011;7693;49.266;7.104;2023-04-24T14:59:05;6.20;;;5.80;;
15183;SDS011;7693;49.266;7.104;2023-04-24T15:01:32;6.27;;;5.67;;
15183;SDS011;7693;49.266;7.104;2023-04-24T15:03:57;5.50;;;5.10;;
15183;SDS011;7693;49.266;7.104;2023-04-24T15:06:23;5.17;;;4.90;;
15183;SDS011;7693;49.266;7.104;2023-04-24T15:08:49;6.03;;;5.20;;
15183;SDS011;7693;49.266;7.104;2023-04-24T15:11:15;4.53;;;4.23;;
15183;SDS011;7693;49.266;7.104;2023-04-24T15:13:41;4.90;;;4.60;;
15183;SDS011;7693;49.266;7.104;2023-04-24T15:16:06;4.53;;;4.33;;
15183;SDS011;7693;49.266;7.104;2023-04-24T15:18:32;5.20;;;4.83;;
15183;SDS011;7693;49.266;7.104;2023-04-24T15:20:57;6.30;;;3.87;;
15183;SDS011;7693;49.266;7.104;2023-04-24T15:23:23;4.03;;;3.50;;
15183;SDS011;7693;49.266;7.104;2023-04-24T15:25:48;4.17;;;3.90;;
15183;SDS011;7693;49.266;7.104;2023-04-24T15:28:14;3.87;;;3.67;;
15183;SDS011;7693;49.266;7.104;2023-04-24T15:30:41;4.20;;;3.90;;
15183;SDS011;7693;49.266;7.104;2023-04-24T15:33:06;3.57;;;3.40;;
15183;SDS011;7693;49.266;7.104;2023-04-24T15:35:33;4.63;;;4.07;;
15183;SDS011;7693;49.266;7.104;2023-04-24T15:37:58;4.50;;;4.20;;
15183;SDS011;7693;49.266;7.104;2023-04-24T15:40:24;4.23;;;3.90;;
15183;SDS011;7693;49.266;7.104;2023-04-24T15:42:49;4.30;;;3.97;;
15183;SDS011;7693;49.266;7.104;2023-04-24T15:45:15;4.27;;;4.07;;
15183;SDS011;7693;49.266;7.104;2023-04-24T15:47:41;5.30;;;3.97;;
15183;SDS011;7693;49.266;7.104;2023-04-24T15:50:06;4.23;;;3.93;;
15183;SDS011;7693;49.266;7.104;2023-04-24T15:52:35;4.77;;;4.20;;
15183;SDS011;7693;49.266;7.104;2023-04-24T15:55:02;4.30;;;4.00;;
15183;SDS011;7693;49.266;7.104;2023-04-24T15:57:28;4.27;;;4.03;;
15183;SDS011;7693;49.266;7.104;2023-04-24T15:59:54;4.80;;;4.40;;
15183;SDS011;7693;49.266;7.104;2023-04-24T16:02:20;4.43;;;4.13;;
15183;SDS011;7693;49.266;7.104;2023-04-24T16:04:47;4.53;;;4.23;;
15183;SDS011;7693;49.266;7.104;2023-04-24T16:07:14;4.60;;;4.20;;
15183;SDS011;7693;49.266;7.104;2023-04-24T16:09:42;4.50;;;4.20;;
15183;SDS011;7693;49.266;7.104;2023-04-24T16:12:08;4.07;;;3.87;;
15183;SDS011;7693;49.266;7.104;2023-04-24T16:14:34;4.03;;;3.83;;
15183;SDS011;7693;49.266;7.104;2023-04-24T16:17:03;4.00;;;3.80;;
15183;SDS011;7693;49.266;7.104;2023-04-24T16:19:29;4.70;;;4.30;;
15183;SDS011;7693;49.266;7.104;2023-04-24T16:21:55;4.13;;;3.80;;
15183;SDS011;7693;49.266;7.104;2023-04-24T16:24:22;4.03;;;3.67;;
15183;SDS011;7693;49.266;7.104;2023-04-24T16:26:48;6.10;;;4.23;;
15183;SDS011;7693;49.266;7.104;2023-04-24T16:29:14;3.97;;;3.77;;
15183;SDS011;7693;49.266;7.104;2023-04-24T16:31:40;3.90;;;3.70;;
15183;SDS011;7693;49.266;7.104;2023-04-24T16:34:06;3.50;;;3.30;;
15183;SDS011;7693;49.266;7.104;2023-04-24T16:36:32;4.87;;;3.87;;
15183;SDS011;7693;49.266;7.104;2023-04-24T16:38:58;4.10;;;3.80;;
15183;SDS011;7693;49.266;7.104;2023-04-24T16:41:25;4.60;;;4.30;;
15183;SDS011;7693;49.266;7.104;2023-04-24T16:43:51;4.40;;;4.03;;
15183;SDS011;7693;49.266;7.104;2023-04-24T16:46:17;4.20;;;3.70;;
15183;SDS011;7693;49.266;7.104;2023-04-24T16:48:43;4.23;;;4.03;;
15183;SDS011;7693;49.266;7.104;2023-04-24T16:51:09;3.93;;;3.73;;
15183;SDS011;7693;49.266;7.104;2023-04-24T16:53:34;3.53;;;3.33;;
15183;SDS011;7693;49.266;7.104;2023-04-24T16:56:00;3.67;;;3.47;;
15183;SDS011;7693;49.266;7.104;2023-04-24T16:58:26;4.40;;;4.00;;
15183;SDS011;7693;49.266;7.104;2023-04-24T17:00:52;3.33;;;3.13;;
15183;SDS011;7693;49.266;7.104;2023-04-24T17:03:17;3.57;;;3.47;;
15183;SDS011;7693;49.266;7.104;2023-04-24T17:05:43;3.87;;;3.50;;
15183;SDS011;7693;49.266;7.104;2023-04-24T17:08:08;4.53;;;4.17;;
15183;SDS011;7693;49.266;7.104;2023-04-24T17:10:34;4.27;;;4.07;;
15183;SDS011;7693;49.266;7.104;2023-04-24T17:13:00;3.73;;;3.33;;
15183;SDS011;7693;49.266;7.104;2023-04-24T17:15:25;3.97;;;3.77;;
15183;SDS011;7693;49.266;7.104;2023-04-24T17:17:51;4.17;;;3.97;;
15183;SDS011;7693;49.266;7.104;2023-04-24T17:20:17;4.43;;;4.23;;
15183;SDS011;7693;49.266;7.104;2023-04-24T17:22:42;4.00;;;3.70;;
15183;SDS011;7693;49.266;7.104;2023-04-24T17:25:08;4.13;;;3.80;;
15183;SDS011;7693;49.266;7.104;2023-04-24T17:27:34;4.30;;;4.00;;
15183;SDS011;7693;49.266;7.104;2023-04-24T17:29:59;5.03;;;4.37;;
15183;SDS011;7693;49.266;7.104;2023-04-24T17:32:25;4.10;;;3.90;;
15183;SDS011;7693;49.266;7.104;2023-04-24T17:34:50;3.50;;;3.30;;
15183;SDS011;7693;49.266;7.104;2023-04-24T17:37:16;3.73;;;3.53;;
15183;SDS011;7693;49.266;7.104;2023-04-24T17:39:44;4.37;;;4.03;;
15183;SDS011;7693;49.266;7.104;2023-04-24T17:42:09;3.97;;;3.77;;
15183;SDS011;7693;49.266;7.104;2023-04-24T17:44:35;4.20;;;3.80;;
15183;SDS011;7693;49.266;7.104;2023-04-24T17:47:01;3.80;;;3.60;;
15183;SDS011;7693;49.266;7.104;2023-04-24T17:49:28;4.70;;;4.20;;
15183;SDS011;7693;49.266;7.104;2023-04-24T17:51:54;3.80;;;3.60;;
15183;SDS011;7693;49.266;7.104;2023-04-24T17:54:20;4.13;;;3.70;;
15183;SDS011;7693;49.266;7.104;2023-04-24T17:56:46;3.53;;;3.33;;
15183;SDS011;7693;49.266;7.104;2023-04-24T17:59:11;3.80;;;3.50;;
15183;SDS011;7693;49.266;7.104;2023-04-24T18:01:37;4.53;;;4.13;;
15183;SDS011;7693;49.266;7.104;2023-04-24T18:04:03;4.07;;;3.83;;
15183;SDS011;7693;49.266;7.104;2023-04-24T18:06:28;4.10;;;3.77;;
15183;SDS011;7693;49.266;7.104;2023-04-24T18:08:54;4.27;;;4.07;;
15183;SDS011;7693;49.266;7.104;2023-04-24T18:11:20;6.10;;;3.80;;
15183;SDS011;7693;49.266;7.104;2023-04-24T18:13:45;4.10;;;3.90;;
15183;SDS011;7693;49.266;7.104;2023-04-24T18:16:11;5.07;;;4.77;;
15183;SDS011;7693;49.266;7.104;2023-04-24T18:18:37;4.63;;;4.33;;
15183;SDS011;7693;49.266;7.104;2023-04-24T18:21:02;5.37;;;5.00;;
15183;SDS011;7693;49.266;7.104;2023-04-24T18:23:29;5.10;;;4.70;;
15183;SDS011;7693;49.266;7.104;2023-04-24T18:25:54;4.97;;;4.57;;
15183;SDS011;7693;49.266;7.104;2023-04-24T18:28:20;5.80;;;5.40;;
15183;SDS011;7693;49.266;7.104;2023-04-24T18:30:46;5.17;;;4.87;;
15183;SDS011;7693;49.266;7.104;2023-04-24T18:33:11;5.70;;;5.20;;
15183;SDS011;7693;49.266;7.104;2023-04-24T18:35:37;5.53;;;5.03;;
15183;SDS011;7693;49.266;7.104;2023-04-24T18:38:03;6.00;;;5.27;;
15183;SDS011;7693;49.266;7.104;2023-04-24T18:40:29;5.00;;;4.70;;
15183;SDS011;7693;49.266;7.104;2023-04-24T18:42:55;5.80;;;4.73;;
15183;SDS011;7693;49.266;7.104;2023-04-24T18:45:20;4.57;;;4.30;;
15183;SDS011;7693;49.266;7.104;2023-04-24T18:47:46;4.70;;;4.40;;
15183;SDS011;7693;49.266;7.104;2023-04-24T18:50:12;5.07;;;4.67;;
15183;SDS011;7693;49.266;7.104;2023-04-24T18:52:38;4.63;;;4.43;;
15183;SDS011;7693;49.266;7.104;2023-04-24T18:55:04;4.20;;;3.90;;
15183;SDS011;7693;49.266;7.104;2023-04-24T18:57:31;4.67;;;4.27;;
15183;SDS011;7693;49.266;7.104;2023-04-24T18:59:57;4.73;;;4.47;;
15183;SDS011;7693;49.266;7.104;2023-04-24T19:02:23;5.20;;;4.90;;
15183;SDS011;7693;49.266;7.104;2023-04-24T19:04:49;4.10;;;3.90;;
15183;SDS011;7693;49.266;7.104;2023-04-24T19:07:14;4.90;;;4.40;;
15183;SDS011;7693;49.266;7.104;2023-04-24T19:09:40;5.00;;;4.70;;
15183;SDS011;7693;49.266;7.104;2023-04-24T19:12:05;5.70;;;5.20;;
15183;SDS011;7693;49.266;7.104;2023-04-24T19:14:31;5.63;;;4.57;;
15183;SDS011;7693;49.266;7.104;2023-04-24T19:16:57;5.30;;;4.90;;
15183;SDS011;7693;49.266;7.104;2023-04-24T19:19:23;4.73;;;4.53;;
15183;SDS011;7693;49.266;7.104;2023-04-24T19:21:50;5.43;;;5.03;;
15183;SDS011;7693;49.266;7.104;2023-04-24T19:24:16;4.90;;;4.60;;
15183;SDS011;7693;49.266;7.104;2023-04-24T19:26:43;5.60;;;5.10;;
15183;SDS011;7693;49.266;7.104;2023-04-24T19:29:09;5.23;;;4.83;;
15183;SDS011;7693;49.266;7.104;2023-04-24T19:31:35;4.90;;;4.50;;
15183;SDS011;7693;49.266;7.104;2023-04-24T19:34:00;5.23;;;4.87;;
15183;SDS011;7693;49.266;7.104;2023-04-24T19:36:26;6.10;;;5.70;;
15183;SDS011;7693;49.266;7.104;2023-04-24T19:38:53;6.43;;;4.80;;
15183;SDS011;7693;49.266;7.104;2023-04-24T19:41:19;5.27;;;4.87;;
15183;SDS011;7693;49.266;7.104;2023-04-24T19:43:44;5.80;;;5.30;;
15183;SDS011;7693;49.266;7.104;2023-04-24T19:46:12;4.97;;;4.70;;
15183;SDS011;7693;49.266;7.104;2023-04-24T19:48:38;4.60;;;4.27;;
15183;SDS011;7693;49.266;7.104;2023-04-24T19:51:04;4.60;;;4.40;;
15183;SDS011;7693;49.266;7.104;2023-04-24T19:53:30;4.83;;;4.50;;
15183;SDS011;7693;49.266;7.104;2023-04-24T19:55:57;5.07;;;4.77;;
15183;SDS011;7693;49.266;7.104;2023-04-24T19:58:23;4.70;;;4.40;;
15183;SDS011;7693;49.266;7.104;2023-04-24T20:00:48;4.87;;;4.57;;
15183;SDS011;7693;49.266;7.104;2023-04-24T20:03:14;4.97;;;4.67;;
15183;SDS011;7693;49.266;7.104;2023-04-24T20:05:40;4.57;;;4.20;;
15183;SDS011;7693;49.266;7.104;2023-04-24T20:08:05;3.73;;;3.53;;
15183;SDS011;7693;49.266;7.104;2023-04-24T20:10:31;4.37;;;4.07;;
15183;SDS011;7693;49.266;7.104;2023-04-24T20:12:56;4.47;;;4.23;;
15183;SDS011;7693;49.266;7.104;2023-04-24T20:15:22;4.97;;;4.47;;
15183;SDS011;7693;49.266;7.104;2023-04-24T20:17:47;4.40;;;4.20;;
15183;SDS011;7693;49.266;7.104;2023-04-24T20:20:13;4.13;;;3.93;;
15183;SDS011;7693;49.266;7.104;2023-04-24T20:22:39;5.43;;;4.97;;
15183;SDS011;7693;49.266;7.104;2023-04-24T20:25:07;4.37;;;3.97;;
15183;SDS011;7693;49.266;7.104;2023-04-24T20:27:34;4.50;;;4.20;;
15183;SDS011;7693;49.266;7.104;2023-04-24T20:30:00;5.37;;;4.07;;
15183;SDS011;7693;49.266;7.104;2023-04-24T20:32:26;4.73;;;4.50;;
15183;SDS011;7693;49.266;7.104;2023-04-24T20:34:51;4.63;;;4.43;;
15183;SDS011;7693;49.266;7.104;2023-04-24T20:37:17;3.70;;;3.57;;
15183;SDS011;7693;49.266;7.104;2023-04-24T20:39:43;4.50;;;4.30;;
15183;SDS011;7693;49.266;7.104;2023-04-24T20:42:09;3.90;;;3.70;;
15183;SDS011;7693;49.266;7.104;2023-04-24T20:44:35;4.67;;;4.40;;
15183;SDS011;7693;49.266;7.104;2023-04-24T20:47:01;4.60;;;4.40;;
15183;SDS011;7693;49.266;7.104;2023-04-24T20:49:27;5.27;;;5.07;;
15183;SDS011;7693;49.266;7.104;2023-04-24T20:51:52;4.83;;;4.63;;
15183;SDS011;7693;49.266;7.104;2023-04-24T20:54:19;6.57;;;5.50;;
15183;SDS011;7693;49.266;7.104;2023-04-24T20:56:44;6.67;;;6.17;;
15183;SDS011;7693;49.266;7.104;2023-04-24T20:59:11;5.90;;;5.50;;
15183;SDS011;7693;49.266;7.104;2023-04-24T21:01:36;7.77;;;7.00;;
15183;SDS011;7693;49.266;7.104;2023-04-24T21:04:02;7.13;;;6.53;;
15183;SDS011;7693;49.266;7.104;2023-04-24T21:06:28;10.03;;;9.13;;
15183;SDS011;7693;49.266;7.104;2023-04-24T21:08:53;7.40;;;6.80;;
15183;SDS011;7693;49.266;7.104;2023-04-24T21:11:19;7.13;;;6.53;;
15183;SDS011;7693;49.266;7.104;2023-04-24T21:13:44;7.27;;;6.67;;
15183;SDS011;7693;49.266;7.104;2023-04-24T21:16:10;7.10;;;6.60;;
15183;SDS011;7693;49.266;7.104;2023-04-24T21:18:36;8.17;;;7.50;;
15183;SDS011;7693;49.266;7.104;2023-04-24T21:21:05;6.77;;;6.27;;
15183;SDS011;7693;49.266;7.104;2023-04-24T21:23:33;7.13;;;6.40;;
15183;SDS011;7693;49.266;7.104;2023-04-24T21:26:00;7.73;;;7.03;;
15183;SDS011;7693;49.266;7.104;2023-04-24T21:28:29;7.47;;;6.87;;
15183;SDS011;7693;49.266;7.104;2023-04-24T21:30:55;7.90;;;7.20;;
15183;SDS011;7693;49.266;7.104;2023-04-24T21:33:20;7.83;;;7.17;;
15183;SDS011;7693;49.266;7.104;2023-04-24T21:35:46;8.50;;;6.37;;
15183;SDS011;7693;49.266;7.104;2023-04-24T21:38:12;7.03;;;6.53;;
15183;SDS011;7693;49.266;7.104;2023-04-24T21:40:37;7.40;;;6.90;;
15183;SDS011;7693;49.266;7.104;2023-04-24T21:43:03;7.27;;;6.63;;
15183;SDS011;7693;49.266;7.104;2023-04-24T21:45:28;6.50;;;6.10;;
15183;SDS011;7693;49.266;7.104;2023-04-24T21:47:54;6.50;;;6.00;;